createdAt,value
2023-09-19T00:02:26.818Z,7.33
2023-09-19T00:05:13.274Z,5.33
2023-09-19T00:07:41.003Z,9.20
2023-09-19T00:10:09.005Z,7.90
2023-09-19T00:12:36.620Z,8.33
2023-09-19T00:15:04.323Z,7.40
2023-09-19T00:17:31.926Z,8.63
2023-09-19T00:19:59.513Z,11.07
2023-09-19T00:22:27.132Z,9.27
2023-09-19T00:24:54.699Z,5.13
2023-09-19T00:27:22.269Z,7.27
2023-09-19T00:29:49.803Z,8.53
2023-09-19T00:32:17.437Z,5.90
2023-09-19T00:34:44.973Z,10.73
2023-09-19T00:37:12.602Z,9.90
2023-09-19T00:39:40.188Z,10.60
2023-09-19T00:42:07.837Z,9.90
2023-09-19T00:44:35.343Z,5.83
2023-09-19T00:47:03.070Z,10.30
2023-09-19T00:49:31.961Z,10.10
2023-09-19T00:51:59.675Z,8.40
2023-09-19T00:54:27.316Z,7.73
2023-09-19T00:56:54.882Z,7.03
2023-09-19T00:59:22.475Z,8.80
2023-09-19T01:01:50.151Z,8.27
2023-09-19T01:04:17.841Z,17.53
2023-09-19T01:06:45.547Z,9.73
2023-09-19T01:09:13.244Z,11.00
2023-09-19T01:11:44.649Z,8.47
2023-09-19T01:14:12.281Z,8.13
2023-09-19T01:16:42.790Z,8.10
2023-09-19T01:19:29.090Z,6.97
2023-09-19T01:22:03.656Z,12.27
2023-09-19T01:24:50.133Z,8.40
2023-09-19T01:27:35.784Z,8.63
2023-09-19T01:30:09.514Z,7.43
2023-09-19T01:32:38.125Z,8.80
2023-09-19T01:35:05.882Z,8.70
2023-09-19T01:37:33.596Z,7.40
2023-09-19T01:40:04.126Z,10.43
2023-09-19T01:42:50.456Z,7.30
2023-09-19T01:45:24.215Z,8.27
2023-09-19T01:47:53.773Z,12.23
2023-09-19T01:50:24.398Z,8.20
2023-09-19T01:52:58.768Z,5.13
2023-09-19T01:55:28.531Z,7.40
2023-09-19T01:58:02.897Z,9.07
2023-09-19T02:00:30.950Z,9.27
2023-09-19T02:02:59.905Z,8.83
2023-09-19T02:05:27.827Z,9.87
2023-09-19T02:07:55.548Z,10.93
2023-09-19T02:10:23.605Z,9.43
2023-09-19T02:12:52.014Z,7.20
2023-09-19T02:15:19.933Z,7.60
2023-09-19T02:17:47.556Z,5.97
2023-09-19T02:20:15.225Z,9.10
2023-09-19T02:22:43.336Z,6.00
2023-09-19T02:25:11.000Z,12.60
2023-09-19T02:27:38.795Z,10.67
2023-09-19T02:30:06.730Z,9.53
2023-09-19T02:32:34.327Z,6.77
2023-09-19T02:35:02.067Z,11.83
2023-09-19T02:37:29.739Z,5.47
2023-09-19T02:39:57.428Z,11.67
2023-09-19T02:42:25.087Z,8.63
2023-09-19T02:44:52.744Z,10.37
2023-09-19T02:47:20.445Z,8.57
2023-09-19T02:49:48.142Z,9.23
2023-09-19T02:52:15.929Z,8.93
2023-09-19T02:54:43.655Z,8.23
2023-09-19T02:57:11.243Z,8.33
2023-09-19T02:59:38.877Z,9.80
2023-09-19T03:02:06.617Z,7.27
2023-09-19T03:04:34.403Z,9.57
2023-09-19T03:07:02.063Z,8.80
2023-09-19T03:09:29.763Z,10.27
2023-09-19T03:11:57.302Z,10.90
2023-09-19T03:14:25.027Z,10.10
2023-09-19T03:16:52.646Z,7.27
2023-09-19T03:19:20.278Z,7.73
2023-09-19T03:21:47.829Z,6.70
2023-09-19T03:24:15.427Z,7.53
2023-09-19T03:26:43.027Z,10.07
2023-09-19T03:29:10.647Z,9.10
2023-09-19T03:31:38.463Z,9.80
2023-09-19T03:34:06.303Z,8.97
2023-09-19T03:36:37.209Z,9.70
2023-09-19T03:39:04.956Z,9.00
2023-09-19T03:41:33.080Z,10.57
2023-09-19T03:44:00.746Z,9.50
2023-09-19T03:46:28.373Z,10.77
2023-09-19T03:48:56.282Z,9.73
2023-09-19T03:51:23.862Z,8.10
2023-09-19T03:53:51.439Z,8.23
2023-09-19T03:56:19.046Z,8.03
2023-09-19T03:58:46.703Z,8.73
2023-09-19T04:01:14.508Z,8.67
2023-09-19T04:03:42.253Z,9.57
2023-09-19T04:06:09.867Z,8.77
2023-09-19T04:08:37.451Z,9.47
2023-09-19T04:11:05.062Z,9.40
2023-09-19T04:13:32.679Z,8.00
2023-09-19T04:16:00.318Z,10.73
2023-09-19T04:18:27.989Z,11.57
2023-09-19T04:20:55.590Z,9.60
2023-09-19T04:23:23.222Z,7.23
2023-09-19T04:25:50.852Z,8.37
2023-09-19T04:28:18.522Z,10.70
2023-09-19T04:30:46.167Z,8.37
2023-09-19T04:33:13.715Z,8.33
2023-09-19T04:35:41.332Z,10.40
2023-09-19T04:38:08.918Z,9.13
2023-09-19T04:40:36.595Z,10.20
2023-09-19T04:43:04.279Z,8.33
2023-09-19T04:45:31.904Z,11.37
2023-09-19T04:47:59.561Z,9.97
2023-09-19T04:50:27.256Z,17.03
2023-09-19T04:52:55.037Z,12.07
2023-09-19T04:55:22.749Z,14.77
2023-09-19T04:57:53.333Z,12.20
2023-09-19T05:00:21.682Z,13.47
2023-09-19T05:02:51.292Z,12.10
2023-09-19T05:05:19.145Z,11.40
2023-09-19T05:07:47.501Z,9.43
2023-09-19T05:10:15.495Z,16.37
2023-09-19T05:12:43.079Z,14.87
2023-09-19T05:15:10.863Z,16.83
2023-09-19T05:17:38.403Z,12.93
2023-09-19T05:20:06.309Z,14.40
2023-09-19T05:22:33.903Z,17.10
2023-09-19T05:25:01.518Z,8.53
2023-09-19T05:27:29.093Z,10.33
2023-09-19T05:29:56.686Z,9.93
2023-09-19T05:32:24.262Z,8.50
2023-09-19T05:34:51.931Z,7.67
2023-09-19T05:37:19.613Z,10.83
2023-09-19T05:39:47.251Z,9.27
2023-09-19T05:42:14.824Z,12.77
2023-09-19T05:44:42.479Z,9.13
2023-09-19T05:47:10.182Z,10.27
2023-09-19T05:49:38.649Z,10.97
2023-09-19T05:52:08.212Z,10.53
2023-09-19T05:54:35.846Z,9.53
2023-09-19T05:57:03.482Z,8.20
2023-09-19T05:59:31.032Z,10.43
2023-09-19T06:01:58.662Z,9.33
2023-09-19T06:04:26.311Z,8.47
2023-09-19T06:06:56.026Z,8.03
2023-09-19T06:09:24.259Z,11.30
2023-09-19T06:11:51.936Z,7.70
2023-09-19T06:14:19.671Z,8.93
2023-09-19T06:16:47.342Z,10.83
2023-09-19T06:19:14.976Z,7.90
2023-09-19T06:21:42.537Z,12.30
2023-09-19T06:24:10.268Z,10.00
2023-09-19T06:26:37.842Z,6.93
2023-09-19T06:29:05.450Z,9.73
2023-09-19T06:31:33.209Z,24.37
2023-09-19T06:34:01.005Z,12.87
2023-09-19T06:36:28.596Z,8.90
2023-09-19T06:38:56.265Z,10.27
2023-09-19T06:41:23.836Z,10.73
2023-09-19T06:43:51.503Z,8.57
2023-09-19T06:46:19.359Z,9.60
2023-09-19T06:48:47.044Z,14.37
2023-09-19T06:51:14.633Z,9.50
2023-09-19T06:53:42.291Z,16.27
2023-09-19T06:56:10.045Z,9.80
2023-09-19T06:58:37.714Z,8.63
2023-09-19T07:01:05.313Z,9.43
2023-09-19T07:03:32.969Z,13.27
2023-09-19T07:06:00.536Z,13.30
2023-09-19T07:08:28.153Z,10.07
2023-09-19T07:10:57.948Z,15.20
2023-09-19T07:13:25.728Z,14.77
2023-09-19T07:15:53.354Z,16.17
2023-09-19T07:18:20.953Z,9.17
2023-09-19T07:20:48.532Z,14.97
2023-09-19T07:23:22.620Z,13.70
2023-09-19T07:25:50.556Z,15.07
2023-09-19T07:28:18.263Z,9.83
2023-09-19T07:30:45.935Z,9.13
2023-09-19T07:33:13.565Z,8.77
2023-09-19T07:35:41.334Z,11.13
2023-09-19T07:38:09.242Z,9.43
2023-09-19T07:40:37.100Z,8.67
2023-09-19T07:43:04.834Z,12.23
2023-09-19T07:45:33.102Z,9.50
2023-09-19T07:48:04.001Z,8.93
2023-09-19T07:50:32.171Z,7.33
2023-09-19T07:52:59.755Z,8.53
2023-09-19T07:55:27.625Z,14.27
2023-09-19T07:57:55.224Z,9.17
2023-09-19T08:00:22.906Z,9.77
2023-09-19T08:02:53.971Z,13.37
2023-09-19T08:05:26.070Z,7.87
2023-09-19T08:07:54.546Z,7.60
2023-09-19T08:10:22.419Z,10.83
2023-09-19T08:12:50.562Z,11.73
2023-09-19T08:15:19.160Z,7.30
2023-09-19T08:17:46.979Z,6.47
2023-09-19T08:20:14.780Z,8.67
2023-09-19T08:22:42.325Z,9.47
2023-09-19T08:25:10.030Z,8.47
2023-09-19T08:27:37.628Z,13.23
2023-09-19T08:30:05.420Z,7.63
2023-09-19T08:32:33.026Z,9.80
2023-09-19T08:35:00.893Z,12.30
2023-09-19T08:37:28.624Z,11.43
2023-09-19T08:39:56.293Z,10.47
2023-09-19T08:42:24.197Z,12.93
2023-09-19T08:44:52.120Z,11.00
2023-09-19T08:47:21.949Z,13.90
2023-09-19T08:49:55.194Z,7.90
2023-09-19T08:52:27.055Z,8.83
2023-09-19T08:54:57.345Z,8.30
2023-09-19T08:57:25.317Z,8.80
2023-09-19T08:59:52.921Z,8.67
2023-09-19T09:02:20.823Z,8.67
2023-09-19T09:04:50.530Z,9.23
2023-09-19T09:07:18.426Z,10.73
2023-09-19T09:09:46.110Z,9.20
2023-09-19T09:12:14.147Z,12.80
2023-09-19T09:14:42.076Z,8.43
2023-09-19T09:17:09.821Z,9.27
2023-09-19T09:19:37.651Z,12.17
2023-09-19T09:22:11.707Z,9.90
2023-09-19T09:24:52.441Z,10.70
2023-09-19T09:27:20.201Z,7.03
2023-09-19T09:29:49.279Z,8.70
2023-09-19T09:32:19.750Z,6.53
2023-09-19T09:34:49.210Z,9.73
2023-09-19T09:37:17.750Z,8.83
2023-09-19T09:39:50.909Z,8.73
2023-09-19T09:42:30.662Z,7.70
2023-09-19T09:45:16.760Z,10.77
2023-09-19T09:47:48.177Z,12.80
2023-09-19T09:50:15.846Z,8.37
2023-09-19T09:52:46.648Z,9.57
2023-09-19T09:55:14.337Z,8.73
2023-09-19T09:57:41.894Z,8.20
2023-09-19T10:00:11.681Z,10.97
2023-09-19T10:02:39.407Z,12.77
2023-09-19T10:05:33.267Z,7.63
2023-09-19T10:08:11.610Z,5.77
2023-09-19T10:10:40.249Z,10.33
2023-09-19T10:13:08.591Z,7.83
2023-09-19T10:15:37.638Z,8.77
2023-09-19T10:18:08.756Z,11.67
2023-09-19T10:20:38.300Z,11.00
2023-09-19T10:23:07.531Z,8.60
2023-09-19T10:25:37.839Z,8.83
2023-09-19T10:28:07.318Z,8.00
2023-09-19T10:30:38.134Z,11.20
2023-09-19T10:33:06.260Z,8.07
2023-09-19T10:35:34.677Z,11.43
2023-09-19T10:38:02.786Z,10.03
2023-09-19T10:40:30.494Z,7.40
2023-09-19T10:43:02.608Z,8.97
2023-09-19T10:45:30.629Z,7.30
2023-09-19T10:47:58.156Z,9.43
2023-09-19T10:50:26.130Z,7.43
2023-09-19T10:52:55.628Z,11.83
2023-09-19T10:55:23.284Z,5.33
2023-09-19T10:57:50.858Z,10.27
2023-09-19T11:00:19.581Z,8.33
2023-09-19T11:03:07.172Z,11.67
2023-09-19T11:05:35.274Z,4.80
2023-09-19T11:08:02.901Z,10.20
2023-09-19T11:10:45.939Z,8.07
2023-09-19T11:13:29.545Z,4.37
2023-09-19T11:16:00.128Z,5.23
2023-09-19T11:18:52.961Z,6.67
2023-09-19T11:21:29.741Z,6.23
2023-09-19T11:24:23.889Z,7.93
2023-09-19T11:26:51.503Z,7.07
2023-09-19T11:29:34.152Z,7.07
2023-09-19T11:32:01.860Z,4.20
2023-09-19T11:34:38.516Z,5.13
2023-09-19T11:37:12.090Z,12.00
2023-09-19T11:39:40.014Z,6.40
2023-09-19T11:42:26.207Z,6.83
2023-09-19T11:44:54.461Z,5.43
2023-09-19T11:47:22.176Z,11.30
2023-09-19T11:49:49.903Z,10.40
2023-09-19T11:52:23.389Z,8.07
2023-09-19T11:54:56.037Z,8.37
2023-09-19T11:57:24.193Z,7.70
2023-09-19T11:59:51.758Z,9.87
2023-09-19T12:02:29.622Z,7.47
2023-09-19T12:04:57.356Z,7.30
2023-09-19T12:07:24.959Z,9.13
2023-09-19T12:10:03.968Z,5.90
2023-09-19T12:12:31.878Z,6.93
2023-09-19T12:14:59.527Z,5.73
2023-09-19T12:17:37.303Z,13.03
2023-09-19T12:20:05.351Z,8.00
2023-09-19T12:22:40.984Z,7.83
2023-09-19T12:25:08.698Z,7.53
2023-09-19T12:27:46.317Z,9.53
2023-09-19T12:32:45.260Z,7.77
2023-09-19T12:35:28.565Z,7.03
2023-09-19T12:37:56.192Z,9.17
2023-09-19T12:40:24.072Z,4.90
2023-09-19T12:42:51.753Z,7.40
2023-09-19T12:45:19.579Z,6.57
2023-09-19T12:48:13.485Z,5.47
2023-09-19T12:51:00.829Z,12.03
2023-09-19T12:53:28.612Z,3.83
2023-09-19T12:56:01.975Z,7.30
2023-09-19T12:58:30.159Z,5.63
2023-09-19T13:00:57.835Z,3.30
2023-09-19T13:03:25.560Z,6.70
2023-09-19T13:05:54.055Z,4.97
2023-09-19T13:08:22.422Z,6.60
2023-09-19T13:11:09.922Z,3.63
2023-09-19T13:13:38.330Z,5.70
2023-09-19T13:16:06.128Z,7.03
2023-09-19T13:18:33.731Z,7.07
2023-09-19T13:21:08.020Z,5.47
2023-09-19T13:23:35.734Z,10.87
2023-09-19T13:26:03.365Z,6.53
2023-09-19T13:28:31.069Z,5.47
2023-09-19T13:30:58.736Z,6.17
2023-09-19T13:33:26.350Z,6.03
2023-09-19T13:35:53.917Z,7.97
2023-09-19T13:38:21.580Z,5.17
2023-09-19T13:40:49.444Z,3.23
2023-09-19T13:43:17.063Z,4.20
2023-09-19T13:45:44.636Z,4.83
2023-09-19T13:48:12.289Z,6.37
2023-09-19T13:50:39.926Z,5.33
2023-09-19T13:53:07.538Z,5.10
2023-09-19T13:55:35.158Z,3.27
2023-09-19T13:58:02.784Z,4.73
2023-09-19T14:00:30.353Z,7.47
2023-09-19T14:02:58.006Z,5.80
2023-09-19T14:05:25.605Z,4.37
2023-09-19T14:07:53.378Z,2.70
2023-09-19T14:10:20.998Z,5.70
2023-09-19T14:12:48.750Z,5.23
2023-09-19T14:15:16.282Z,2.87
2023-09-19T14:17:43.983Z,4.10
2023-09-19T14:20:12.000Z,2.70
2023-09-19T14:22:39.729Z,3.90
2023-09-19T14:25:07.444Z,2.37
2023-09-19T14:27:35.061Z,4.50
2023-09-19T14:30:02.676Z,4.60
2023-09-19T14:32:30.290Z,4.97
2023-09-19T14:34:58.009Z,4.20
2023-09-19T14:37:25.610Z,3.03
2023-09-19T14:39:53.185Z,3.33
2023-09-19T14:42:20.746Z,6.43
2023-09-19T14:44:48.347Z,2.67
2023-09-19T14:47:16.020Z,3.27
2023-09-19T14:49:43.630Z,3.93
2023-09-19T14:52:11.967Z,2.37
2023-09-19T14:54:39.534Z,4.50
2023-09-19T14:57:07.202Z,4.10
2023-09-19T14:59:35.015Z,1.60
2023-09-19T15:02:02.658Z,3.27
2023-09-19T15:04:30.437Z,2.20
2023-09-19T15:06:58.248Z,2.37
2023-09-19T15:09:26.139Z,2.50
2023-09-19T15:11:57.139Z,2.80
2023-09-19T15:14:25.973Z,2.03
2023-09-19T15:16:53.706Z,2.53
2023-09-19T15:19:21.433Z,4.27
2023-09-19T15:21:49.013Z,4.07
2023-09-19T15:24:16.638Z,5.00
2023-09-19T15:26:44.206Z,3.00
2023-09-19T15:29:11.959Z,4.77
2023-09-19T15:31:39.750Z,3.77
2023-09-19T15:34:07.458Z,2.63
2023-09-19T15:36:35.021Z,5.33
2023-09-19T15:39:06.359Z,4.33
2023-09-19T15:41:37.812Z,2.63
2023-09-19T15:44:06.091Z,2.63
2023-09-19T15:46:34.343Z,4.73
2023-09-19T15:49:02.144Z,2.90
2023-09-19T15:51:29.707Z,3.90
2023-09-19T15:53:57.656Z,3.40
2023-09-19T15:56:25.685Z,3.40
2023-09-19T15:58:54.043Z,4.33
2023-09-19T16:01:22.399Z,4.53
2023-09-19T16:03:51.252Z,3.73
2023-09-19T16:06:19.388Z,3.83
2023-09-19T16:08:47.929Z,6.27
2023-09-19T16:11:15.926Z,4.37
2023-09-19T16:13:44.296Z,4.37
2023-09-19T16:16:13.144Z,4.97
2023-09-19T16:18:41.851Z,4.70
2023-09-19T16:21:09.679Z,5.60
2023-09-19T16:23:37.278Z,5.07
2023-09-19T16:26:06.138Z,6.83
2023-09-19T16:28:34.284Z,3.20
2023-09-19T16:31:02.243Z,3.77
2023-09-19T16:33:30.697Z,3.90
2023-09-19T16:35:58.247Z,5.60
2023-09-19T16:38:26.196Z,4.57
2023-09-19T16:41:03.406Z,4.93
2023-09-19T16:43:31.019Z,3.90
2023-09-19T16:45:59.459Z,4.00
2023-09-19T16:48:27.678Z,5.00
2023-09-19T16:50:55.825Z,3.93
2023-09-19T16:53:23.499Z,4.83
2023-09-19T16:55:51.097Z,4.63
2023-09-19T16:58:18.907Z,3.10
2023-09-19T17:00:46.536Z,3.67
2023-09-19T17:03:14.540Z,3.87
2023-09-19T17:05:42.617Z,3.37
2023-09-19T17:08:10.697Z,3.93
2023-09-19T17:10:38.378Z,2.93
2023-09-19T17:13:06.146Z,4.50
2023-09-19T17:15:38.353Z,5.03
2023-09-19T17:18:06.317Z,5.67
2023-09-19T17:20:34.188Z,2.73
2023-09-19T17:23:01.856Z,3.07
2023-09-19T17:25:29.425Z,4.30
2023-09-19T17:27:57.476Z,4.53
2023-09-19T17:30:25.024Z,3.70
2023-09-19T17:32:52.705Z,4.53
2023-09-19T17:35:20.891Z,3.67
2023-09-19T17:37:48.561Z,3.43
2023-09-19T17:40:16.229Z,2.07
2023-09-19T17:42:44.005Z,3.00
2023-09-19T17:45:11.938Z,4.53
2023-09-19T17:47:42.818Z,3.63
2023-09-19T17:50:10.871Z,2.40
2023-09-19T17:52:38.469Z,3.90
2023-09-19T17:55:06.411Z,3.80
2023-09-19T17:57:33.957Z,5.93
2023-09-19T18:00:01.545Z,8.30
2023-09-19T18:02:29.255Z,6.83
2023-09-19T18:04:57.174Z,3.43
2023-09-19T18:07:24.796Z,6.53
2023-09-19T18:09:52.541Z,6.77
2023-09-19T18:12:20.083Z,4.63
2023-09-19T18:14:47.740Z,5.30
2023-09-19T18:17:15.339Z,4.87
2023-09-19T18:19:42.988Z,5.60
2023-09-19T18:22:10.616Z,4.13
2023-09-19T18:24:38.243Z,3.63
2023-09-19T18:27:06.053Z,4.87
2023-09-19T18:29:33.680Z,4.13
2023-09-19T18:32:01.303Z,3.43
2023-09-19T18:34:28.946Z,5.77
2023-09-19T18:36:56.483Z,4.80
2023-09-19T18:39:24.093Z,8.17
2023-09-19T18:41:52.214Z,7.33
2023-09-19T18:44:19.878Z,5.47
2023-09-19T18:46:47.526Z,5.73
2023-09-19T18:49:15.261Z,5.53
2023-09-19T18:51:42.785Z,4.10
2023-09-19T18:54:13.559Z,4.00
2023-09-19T18:56:42.537Z,6.03
2023-09-19T18:59:10.217Z,4.23
2023-09-19T19:01:37.897Z,3.30
2023-09-19T19:04:05.543Z,4.60
2023-09-19T19:06:33.214Z,4.10
2023-09-19T19:09:00.822Z,4.37
2023-09-19T19:11:29.897Z,5.30
2023-09-19T19:13:57.559Z,4.80
2023-09-19T19:16:25.258Z,2.73
2023-09-19T19:18:52.873Z,4.40
2023-09-19T19:21:20.714Z,6.07
2023-09-19T19:23:48.385Z,3.53
2023-09-19T19:26:15.930Z,4.57
2023-09-19T19:28:44.345Z,6.43
2023-09-19T19:31:12.325Z,5.70
2023-09-19T19:33:40.238Z,3.67
2023-09-19T19:36:08.900Z,3.90
2023-09-19T19:38:36.841Z,3.43
2023-09-19T19:41:04.434Z,2.77
2023-09-19T19:43:32.487Z,5.10
2023-09-19T19:46:00.726Z,3.30
2023-09-19T19:48:28.684Z,5.33
2023-09-19T19:50:56.378Z,5.13
2023-09-19T19:53:26.155Z,6.77
2023-09-19T19:55:54.032Z,5.30
2023-09-19T19:58:21.622Z,4.33
2023-09-19T20:00:49.693Z,4.50
2023-09-19T20:03:17.433Z,4.73
2023-09-19T20:05:45.235Z,5.33
2023-09-19T20:08:12.865Z,4.77
2023-09-19T20:10:40.668Z,7.07
2023-09-19T20:13:08.635Z,5.60
2023-09-19T20:15:36.362Z,3.47
2023-09-19T20:18:04.020Z,4.80
2023-09-19T20:20:31.847Z,5.30
2023-09-19T20:22:59.407Z,2.87
2023-09-19T20:25:27.145Z,3.23
2023-09-19T20:27:55.100Z,3.30
2023-09-19T20:30:22.821Z,4.73
2023-09-19T20:32:51.268Z,4.60
2023-09-19T20:35:19.005Z,5.00
2023-09-19T20:37:46.717Z,5.17
2023-09-19T20:40:14.443Z,3.37
2023-09-19T20:42:42.046Z,5.47
2023-09-19T20:45:09.966Z,4.10
2023-09-19T20:47:37.757Z,3.80
2023-09-19T20:50:05.850Z,3.80
2023-09-19T20:52:33.830Z,6.43
2023-09-19T20:55:01.591Z,4.13
2023-09-19T20:57:29.184Z,5.17
2023-09-19T20:59:56.884Z,3.77
2023-09-19T21:02:24.539Z,6.77
2023-09-19T21:04:52.325Z,3.90
2023-09-19T21:07:19.945Z,5.60
2023-09-19T21:09:47.493Z,3.73
2023-09-19T21:12:15.126Z,6.77
2023-09-19T21:14:43.654Z,5.70
2023-09-19T21:17:11.390Z,3.77
2023-09-19T21:19:39.194Z,5.23
2023-09-19T21:22:06.745Z,3.83
2023-09-19T21:24:34.361Z,5.37
2023-09-19T21:27:01.972Z,5.87
2023-09-19T21:29:29.596Z,5.87
2023-09-19T21:31:57.816Z,6.13
2023-09-19T21:34:26.153Z,4.83
2023-09-19T21:36:56.517Z,4.20
2023-09-19T21:39:25.051Z,7.13
2023-09-19T21:41:53.067Z,4.47
2023-09-19T21:44:20.798Z,4.73
2023-09-19T21:46:48.606Z,6.03
2023-09-19T21:49:16.305Z,5.43
2023-09-19T21:51:43.854Z,4.13
2023-09-19T21:54:11.499Z,6.17
2023-09-19T21:56:39.011Z,4.10
2023-09-19T21:59:06.747Z,4.87
2023-09-19T22:01:34.342Z,3.37
2023-09-19T22:04:01.984Z,4.97
2023-09-19T22:06:29.553Z,7.03
2023-09-19T22:08:57.219Z,8.63
2023-09-19T22:11:24.801Z,6.57
2023-09-19T22:13:52.707Z,5.10
2023-09-19T22:16:20.513Z,5.63
2023-09-19T22:18:48.380Z,7.80
2023-09-19T22:21:16.430Z,4.67
2023-09-19T22:23:44.044Z,5.40
2023-09-19T22:26:12.208Z,6.50
2023-09-19T22:28:40.045Z,5.83
2023-09-19T22:31:17.470Z,3.57
2023-09-19T22:33:47.868Z,6.13
2023-09-19T22:36:15.455Z,4.67
2023-09-19T22:38:43.286Z,5.10
2023-09-19T22:41:11.103Z,5.23
2023-09-19T22:43:39.732Z,5.40
2023-09-19T22:46:07.334Z,5.00
2023-09-19T22:48:35.129Z,5.70
2023-09-19T22:51:02.683Z,6.07
2023-09-19T22:53:30.403Z,7.37
2023-09-19T22:55:58.066Z,6.40
2023-09-19T22:58:25.623Z,2.90
2023-09-19T23:00:53.239Z,5.67
2023-09-19T23:03:20.886Z,8.40
2023-09-19T23:05:48.661Z,6.20
2023-09-19T23:08:16.343Z,3.83
2023-09-19T23:10:44.579Z,4.83
2023-09-19T23:13:16.082Z,4.63
2023-09-19T23:15:43.817Z,6.60
2023-09-19T23:18:11.488Z,5.53
2023-09-19T23:20:40.009Z,5.27
2023-09-19T23:23:07.800Z,5.20
2023-09-19T23:25:35.490Z,7.10
2023-09-19T23:28:03.354Z,4.00
2023-09-19T23:30:31.030Z,4.20
2023-09-19T23:32:58.653Z,5.07
2023-09-19T23:35:26.389Z,6.07
2023-09-19T23:37:53.984Z,4.73
2023-09-19T23:40:21.671Z,4.50
2023-09-19T23:42:49.890Z,3.63
2023-09-19T23:45:17.796Z,3.10
2023-09-19T23:47:45.399Z,7.00
2023-09-19T23:50:13.054Z,5.47
2023-09-19T23:52:40.740Z,7.33
2023-09-19T23:55:08.558Z,5.43
2023-09-19T23:57:36.089Z,6.07
